Time;durP1;ratioP1;P1;durP2;ratioP2;P2;SDS_P1;SDS_P2;PMS_P1;PMS_P2;Temp;Humidity;BMP_temperature;BMP_pressure;BME280_temperature;BME280_humidity;BME280_pressure;Samples;Min_cycle;Max_cycle;Signal;HPM_P1;HPM_P2
2023/12/30 00:01:20;;;;;;;8.75;1.40;;;;;;;;;;5114372;28;20505;-27
2023/12/30 00:03:46;;;;;;;11.25;1.70;;;;;;;;;;5114405;28;20024;-26
2023/12/30 00:06:11;;;;;;;6.43;2.00;;;;;;;;;;5114057;28;20015;-26
2023/12/30 00:08:36;;;;;;;9.52;1.63;;;;;;;;;;5114017;28;20246;-26
2023/12/30 00:11:01;;;;;;;13.40;1.70;;;;;;;;;;5114424;28;20024;-26
2023/12/30 00:13:26;;;;;;;10.43;1.73;;;;;;;;;;5114195;28;20340;-27
2023/12/30 00:15:52;;;;;;;8.00;1.83;;;;;;;;;;5114448;28;20326;-26
2023/12/30 00:18:17;;;;;;;7.53;1.15;;;;;;;;;;5114122;28;20613;-26
2023/12/30 00:20:42;;;;;;;12.47;1.60;;;;;;;;;;5113464;28;20020;-28
2023/12/30 00:23:07;;;;;;;12.15;1.20;;;;;;;;;;5113854;28;20353;-26
2023/12/30 00:25:33;;;;;;;5.27;1.30;;;;;;;;;;5113874;28;20034;-26
2023/12/30 00:27:58;;;;;;;9.15;1.52;;;;;;;;;;5114086;28;20246;-27
2023/12/30 00:30:23;;;;;;;8.17;1.80;;;;;;;;;;5113799;28;20531;-26
2023/12/30 00:32:48;;;;;;;10.17;1.50;;;;;;;;;;5114286;28;20349;-26
2023/12/30 00:35:13;;;;;;;5.40;1.03;;;;;;;;;;5113756;28;20260;-27
2023/12/30 00:37:38;;;;;;;10.63;1.50;;;;;;;;;;5114288;28;20332;-26
2023/12/30 00:40:04;;;;;;;13.00;2.13;;;;;;;;;;5113720;28;20462;-26
2023/12/30 00:42:30;;;;;;;12.40;1.65;;;;;;;;;;5113922;28;20269;-26
2023/12/30 00:44:55;;;;;;;8.50;1.40;;;;;;;;;;5113828;28;20355;-26
2023/12/30 00:47:20;;;;;;;11.33;1.90;;;;;;;;;;5114204;28;20023;-27
2023/12/30 00:49:45;;;;;;;12.90;1.97;;;;;;;;;;5113628;28;20245;-27
2023/12/30 00:52:10;;;;;;;6.40;1.50;;;;;;;;;;5113922;28;20254;-27
2023/12/30 00:54:36;;;;;;;10.27;1.60;;;;;;;;;;5113477;28;20628;-26
2023/12/30 00:57:01;;;;;;;8.20;1.70;;;;;;;;;;5113813;28;20024;-26
2023/12/30 00:59:27;;;;;;;10.65;1.70;;;;;;;;;;5113385;28;20023;-27
2023/12/30 01:01:52;;;;;;;11.77;1.50;;;;;;;;;;5113760;28;20020;-26
2023/12/30 01:04:17;;;;;;;7.73;1.47;;;;;;;;;;5114038;28;20016;-26
2023/12/30 01:06:42;;;;;;;10.50;1.50;;;;;;;;;;5114063;28;20268;-26
2023/12/30 01:09:07;;;;;;;6.47;1.80;;;;;;;;;;5113802;28;20281;-26
2023/12/30 01:11:33;;;;;;;10.85;2.03;;;;;;;;;;5113595;28;20062;-27
2023/12/30 01:13:58;;;;;;;14.25;2.15;;;;;;;;;;5113414;28;20027;-26
2023/12/30 01:16:23;;;;;;;6.00;1.40;;;;;;;;;;5113712;28;20028;-26
2023/12/30 01:18:48;;;;;;;11.47;1.87;;;;;;;;;;5113935;28;20023;-27
2023/12/30 01:21:13;;;;;;;9.68;1.48;;;;;;;;;;5113730;28;20252;-27
2023/12/30 01:23:39;;;;;;;12.40;1.63;;;;;;;;;;5113558;28;20022;-27
2023/12/30 01:26:04;;;;;;;11.57;1.97;;;;;;;;;;5113319;28;20027;-27
2023/12/30 01:28:30;;;;;;;16.60;1.90;;;;;;;;;;5113197;28;20264;-26
2023/12/30 01:30:55;;;;;;;14.48;1.50;;;;;;;;;;5113123;28;20044;-26
2023/12/30 01:33:21;;;;;;;11.03;2.00;;;;;;;;;;5116751;28;20102;-27
2023/12/30 01:35:46;;;;;;;16.92;1.70;;;;;;;;;;5117225;28;20268;-26
2023/12/30 01:38:11;;;;;;;11.17;1.30;;;;;;;;;;5116907;28;20020;-27
2023/12/30 01:40:36;;;;;;;15.13;1.70;;;;;;;;;;5116884;28;20283;-27
2023/12/30 01:43:02;;;;;;;7.57;1.47;;;;;;;;;;5116720;28;20759;-26
2023/12/30 01:45:28;;;;;;;9.52;1.27;;;;;;;;;;5117345;28;20264;-26
2023/12/30 01:47:53;;;;;;;7.95;1.40;;;;;;;;;;5116996;28;20099;-26
2023/12/30 01:50:19;;;;;;;11.25;1.20;;;;;;;;;;5116666;28;20018;-27
2023/12/30 01:52:46;;;;;;;8.65;1.50;;;;;;;;;;5117201;28;20054;-26
2023/12/30 01:55:11;;;;;;;8.85;1.40;;;;;;;;;;5115780;28;20046;-27
2023/12/30 01:57:37;;;;;;;8.45;1.27;;;;;;;;;;5116143;28;20514;-26
2023/12/30 02:00:04;;;;;;;6.25;1.02;;;;;;;;;;5116029;28;20071;-27
2023/12/30 02:02:29;;;;;;;10.40;1.52;;;;;;;;;;5116640;28;20070;-27
2023/12/30 02:04:54;;;;;;;13.00;1.67;;;;;;;;;;5115835;28;20043;-27
2023/12/30 02:07:20;;;;;;;10.70;1.45;;;;;;;;;;5114222;28;20265;-27
2023/12/30 02:09:45;;;;;;;10.02;1.42;;;;;;;;;;5114100;28;20016;-27
2023/12/30 02:12:11;;;;;;;17.20;1.58;;;;;;;;;;5095987;28;20114;-27
2023/12/30 02:14:36;;;;;;;9.35;1.88;;;;;;;;;;5114352;28;20028;-27
2023/12/30 02:17:01;;;;;;;8.57;1.27;;;;;;;;;;5114280;28;20016;-26
2023/12/30 02:19:26;;;;;;;10.50;1.50;;;;;;;;;;5114095;28;20047;-26
2023/12/30 02:21:52;;;;;;;13.15;1.92;;;;;;;;;;5116054;28;20277;-26
2023/12/30 02:24:18;;;;;;;8.50;1.27;;;;;;;;;;5116339;28;20049;-26
2023/12/30 02:26:44;;;;;;;8.18;1.40;;;;;;;;;;5115985;28;20023;-26
2023/12/30 02:29:09;;;;;;;8.50;1.80;;;;;;;;;;5115962;28;20019;-26
2023/12/30 02:31:45;;;;;;;11.25;2.08;;;;;;;;;;5115936;28;20253;-26
2023/12/30 02:34:10;;;;;;;17.02;1.50;;;;;;;;;;5115934;28;20039;-26
2023/12/30 02:36:35;;;;;;;8.43;1.05;;;;;;;;;;5115804;28;20019;-26
2023/12/30 02:39:01;;;;;;;16.03;1.73;;;;;;;;;;5115833;28;20020;-26
2023/12/30 02:41:27;;;;;;;11.77;1.77;;;;;;;;;;5115666;28;20260;-26
2023/12/30 02:43:57;;;;;;;15.98;2.00;;;;;;;;;;5115234;28;20254;-27
2023/12/30 02:46:22;;;;;;;10.45;2.17;;;;;;;;;;5097316;28;20007;-26
2023/12/30 02:48:47;;;;;;;12.60;2.50;;;;;;;;;;5115590;28;20415;-26
2023/12/30 02:51:15;;;;;;;16.97;3.77;;;;;;;;;;5116119;28;20101;-27
2023/12/30 02:53:41;;;;;;;18.00;4.22;;;;;;;;;;5115461;28;20731;-27
2023/12/30 02:56:06;;;;;;;12.02;2.65;;;;;;;;;;5115414;28;20019;-26
2023/12/30 02:58:31;;;;;;;9.07;2.22;;;;;;;;;;5097077;28;20022;-27
2023/12/30 03:00:57;;;;;;;7.05;1.70;;;;;;;;;;5115189;28;20040;-27
2023/12/30 03:03:22;;;;;;;8.00;1.52;;;;;;;;;;5115243;28;20020;-26
2023/12/30 03:05:47;;;;;;;9.23;1.67;;;;;;;;;;5115406;28;20099;-26
2023/12/30 03:08:12;;;;;;;10.93;1.63;;;;;;;;;;5115339;28;20589;-27
2023/12/30 03:10:37;;;;;;;5.27;1.37;;;;;;;;;;5114989;28;20016;-26
2023/12/30 03:13:03;;;;;;;12.50;1.60;;;;;;;;;;5114936;28;20324;-26
2023/12/30 03:15:28;;;;;;;9.70;1.40;;;;;;;;;;5115102;28;20736;-26
2023/12/30 03:17:54;;;;;;;16.07;2.17;;;;;;;;;;5115118;28;20099;-26
2023/12/30 03:20:19;;;;;;;11.23;1.80;;;;;;;;;;5114841;28;20659;-26
2023/12/30 03:22:44;;;;;;;12.13;1.70;;;;;;;;;;5115269;28;20325;-26
2023/12/30 03:25:09;;;;;;;10.50;1.60;;;;;;;;;;5114840;28;20041;-27
2023/12/30 03:27:34;;;;;;;8.20;1.75;;;;;;;;;;5114790;28;20303;-27
2023/12/30 03:29:59;;;;;;;10.70;1.73;;;;;;;;;;5115087;28;20016;-26
2023/12/30 03:32:25;;;;;;;15.68;2.20;;;;;;;;;;5114679;28;20278;-27
2023/12/30 03:34:50;;;;;;;10.57;1.55;;;;;;;;;;5114664;28;20024;-27
2023/12/30 03:37:15;;;;;;;9.83;1.57;;;;;;;;;;5115229;28;20026;-27
2023/12/30 03:39:42;;;;;;;11.27;1.60;;;;;;;;;;5114643;28;20382;-27
2023/12/30 03:42:07;;;;;;;13.55;1.67;;;;;;;;;;5096420;28;20330;-27
2023/12/30 03:44:32;;;;;;;11.70;1.60;;;;;;;;;;5114831;28;20091;-26
2023/12/30 03:46:57;;;;;;;9.80;1.50;;;;;;;;;;5114867;28;20023;-27
2023/12/30 03:49:23;;;;;;;12.60;1.67;;;;;;;;;;5096340;28;20023;-27
2023/12/30 03:51:48;;;;;;;19.42;1.98;;;;;;;;;;5114684;28;20030;-27
2023/12/30 03:54:14;;;;;;;8.20;1.50;;;;;;;;;;5114306;28;20417;-27
2023/12/30 03:56:39;;;;;;;10.83;1.57;;;;;;;;;;5113695;28;20257;-27
2023/12/30 03:59:05;;;;;;;10.00;1.70;;;;;;;;;;5114560;28;20257;-27
2023/12/30 04:01:30;;;;;;;12.77;1.60;;;;;;;;;;5113845;28;20044;-27
2023/12/30 04:03:55;;;;;;;8.23;1.57;;;;;;;;;;5093759;28;20262;-27
2023/12/30 04:06:20;;;;;;;10.37;1.50;;;;;;;;;;5113497;28;20254;-27
2023/12/30 04:08:45;;;;;;;11.00;1.90;;;;;;;;;;5114138;28;20257;-27
2023/12/30 04:11:11;;;;;;;11.00;2.03;;;;;;;;;;5114030;28;20022;-27
2023/12/30 04:13:36;;;;;;;12.20;1.60;;;;;;;;;;5114116;28;20571;-27
2023/12/30 04:16:02;;;;;;;8.33;1.90;;;;;;;;;;5114634;28;20057;-27
2023/12/30 04:18:27;;;;;;;13.52;1.50;;;;;;;;;;5114228;28;20268;-27
2023/12/30 04:20:52;;;;;;;9.37;1.60;;;;;;;;;;5113970;28;20046;-27
2023/12/30 04:23:17;;;;;;;15.07;1.80;;;;;;;;;;5114430;28;20265;-27
2023/12/30 04:25:42;;;;;;;7.83;1.50;;;;;;;;;;5095630;28;20705;-27
2023/12/30 04:28:07;;;;;;;9.43;1.60;;;;;;;;;;5114417;28;20249;-28
2023/12/30 04:30:33;;;;;;;10.23;2.10;;;;;;;;;;5113864;28;20609;-27
2023/12/30 04:32:58;;;;;;;13.07;1.58;;;;;;;;;;5114373;28;20250;-27
2023/12/30 04:35:23;;;;;;;14.23;1.40;;;;;;;;;;5114407;28;20038;-27
2023/12/30 04:37:48;;;;;;;9.75;1.67;;;;;;;;;;5113839;28;20298;-27
2023/12/30 04:40:13;;;;;;;9.57;1.30;;;;;;;;;;5113773;28;20024;-27
2023/12/30 04:42:38;;;;;;;12.75;1.63;;;;;;;;;;5114257;28;20277;-27
2023/12/30 04:45:04;;;;;;;10.88;1.63;;;;;;;;;;5113737;28;20482;-27
2023/12/30 04:47:29;;;;;;;10.18;1.63;;;;;;;;;;5114254;28;20016;-27
2023/12/30 04:49:54;;;;;;;14.93;1.58;;;;;;;;;;5113667;28;20019;-27
2023/12/30 04:52:19;;;;;;;9.67;1.90;;;;;;;;;;5113709;28;20015;-27
2023/12/30 04:54:45;;;;;;;6.97;1.43;;;;;;;;;;5113657;28;20581;-27
2023/12/30 04:57:10;;;;;;;12.75;1.70;;;;;;;;;;5113579;28;20268;-27
2023/12/30 04:59:35;;;;;;;13.98;1.80;;;;;;;;;;5113899;28;20122;-27
2023/12/30 05:02:00;;;;;;;10.07;1.70;;;;;;;;;;5113793;28;20373;-27
2023/12/30 05:04:25;;;;;;;10.80;1.70;;;;;;;;;;5114104;28;20171;-27
2023/12/30 05:06:51;;;;;;;10.07;1.50;;;;;;;;;;5114733;28;20684;-27
2023/12/30 05:09:16;;;;;;;8.17;1.40;;;;;;;;;;5117500;28;20318;-27
2023/12/30 05:11:44;;;;;;;5.18;1.40;;;;;;;;;;5117310;28;20736;-27
2023/12/30 05:14:09;;;;;;;11.00;1.65;;;;;;;;;;5117678;28;20027;-27
2023/12/30 05:16:40;;;;;;;11.68;1.70;;;;;;;;;;5117234;28;20493;-27
2023/12/30 05:19:06;;;;;;;14.20;1.77;;;;;;;;;;5098946;28;20031;-28
2023/12/30 05:21:31;;;;;;;13.60;2.00;;;;;;;;;;5117768;28;20098;-27
2023/12/30 05:23:56;;;;;;;10.52;1.85;;;;;;;;;;5117524;28;20743;-27
2023/12/30 05:26:21;;;;;;;11.95;1.95;;;;;;;;;;5117161;28;20019;-27
2023/12/30 05:28:46;;;;;;;13.10;1.97;;;;;;;;;;5117224;28;20023;-27
2023/12/30 05:31:11;;;;;;;12.07;2.03;;;;;;;;;;5117701;28;20253;-27
2023/12/30 05:33:37;;;;;;;8.43;1.70;;;;;;;;;;5117075;28;20038;-27
2023/12/30 05:36:02;;;;;;;10.67;1.80;;;;;;;;;;5117561;28;20348;-27
2023/12/30 05:38:27;;;;;;;11.90;1.50;;;;;;;;;;5116923;28;20809;-27
2023/12/30 05:40:52;;;;;;;13.50;1.57;;;;;;;;;;5116956;28;20465;-27
2023/12/30 05:43:17;;;;;;;8.80;1.30;;;;;;;;;;5117312;28;20265;-27
2023/12/30 05:45:44;;;;;;;10.35;2.33;;;;;;;;;;5116799;28;20068;-27
2023/12/30 05:48:09;;;;;;;8.02;1.55;;;;;;;;;;5117371;28;20451;-27
2023/12/30 05:50:34;;;;;;;6.20;1.50;;;;;;;;;;5116773;28;20019;-27
2023/12/30 05:52:59;;;;;;;12.93;1.67;;;;;;;;;;5116675;28;20033;-27
2023/12/30 05:55:24;;;;;;;10.13;2.22;;;;;;;;;;5117236;28;20253;-27
2023/12/30 05:57:50;;;;;;;10.13;2.30;;;;;;;;;;5116671;28;20019;-27
2023/12/30 06:00:16;;;;;;;14.60;2.33;;;;;;;;;;5116783;28;20334;-27
2023/12/30 06:02:41;;;;;;;9.27;1.80;;;;;;;;;;5116645;28;20631;-27
2023/12/30 06:05:06;;;;;;;9.17;1.53;;;;;;;;;;5116537;28;20054;-28
2023/12/30 06:07:31;;;;;;;9.77;1.40;;;;;;;;;;5116437;28;20258;-27
2023/12/30 06:09:56;;;;;;;12.77;2.33;;;;;;;;;;5116415;28;20019;-27
2023/12/30 06:12:22;;;;;;;11.07;1.47;;;;;;;;;;5116228;28;20336;-27
2023/12/30 06:14:47;;;;;;;10.13;1.50;;;;;;;;;;5116298;28;20253;-27
2023/12/30 06:17:12;;;;;;;10.87;1.57;;;;;;;;;;5116281;28;20027;-27
2023/12/30 06:19:37;;;;;;;14.80;2.40;;;;;;;;;;5096840;28;20304;-27
2023/12/30 06:22:03;;;;;;;9.77;1.70;;;;;;;;;;5116363;28;20281;-27
2023/12/30 06:24:28;;;;;;;16.42;1.80;;;;;;;;;;5116156;28;20065;-27
2023/12/30 06:26:53;;;;;;;12.45;1.67;;;;;;;;;;5116623;28;20016;-28
2023/12/30 06:29:19;;;;;;;7.90;1.85;;;;;;;;;;5098296;28;20016;-27
2023/12/30 06:31:44;;;;;;;10.90;1.67;;;;;;;;;;5116262;28;20034;-27
2023/12/30 06:34:09;;;;;;;7.13;1.98;;;;;;;;;;5115913;28;20055;-27
2023/12/30 06:36:35;;;;;;;12.77;1.70;;;;;;;;;;5116118;28;20034;-27
2023/12/30 06:39:00;;;;;;;7.35;1.48;;;;;;;;;;5116442;28;20026;-27
2023/12/30 06:41:25;;;;;;;11.70;1.80;;;;;;;;;;5115637;28;20030;-27
2023/12/30 06:43:51;;;;;;;6.40;1.60;;;;;;;;;;5116017;28;20245;-27
2023/12/30 06:46:20;;;;;;;8.02;1.38;;;;;;;;;;5115962;28;20364;-27
2023/12/30 06:48:45;;;;;;;12.25;1.55;;;;;;;;;;5116158;28;20016;-27
2023/12/30 06:51:10;;;;;;;10.82;1.58;;;;;;;;;;5115678;28;20011;-27
2023/12/30 06:53:36;;;;;;;7.38;1.23;;;;;;;;;;5115352;28;20038;-27
2023/12/30 06:56:01;;;;;;;11.00;1.90;;;;;;;;;;5116016;28;20022;-27
2023/12/30 06:58:29;;;;;;;12.77;1.80;;;;;;;;;;5115695;28;20382;-27
2023/12/30 07:00:55;;;;;;;9.48;1.30;;;;;;;;;;5115372;28;20055;-27
2023/12/30 07:03:20;;;;;;;13.90;1.90;;;;;;;;;;5097029;28;20443;-27
2023/12/30 07:05:45;;;;;;;9.10;1.10;;;;;;;;;;5115831;28;20019;-27
2023/12/30 07:08:10;;;;;;;9.15;1.58;;;;;;;;;;5115541;28;20600;-27
2023/12/30 07:10:36;;;;;;;10.63;1.57;;;;;;;;;;5115214;28;20018;-27
2023/12/30 07:13:01;;;;;;;6.50;1.45;;;;;;;;;;5115048;28;20303;-27
2023/12/30 07:15:26;;;;;;;8.25;1.48;;;;;;;;;;5115059;28;20463;-27
2023/12/30 07:17:51;;;;;;;10.27;1.47;;;;;;;;;;5115024;28;20115;-27
2023/12/30 07:20:16;;;;;;;13.43;1.93;;;;;;;;;;5114964;28;20306;-27
2023/12/30 07:22:42;;;;;;;9.73;1.75;;;;;;;;;;5115383;28;20280;-28
2023/12/30 07:25:07;;;;;;;8.88;1.40;;;;;;;;;;5115468;28;20015;-27
2023/12/30 07:27:33;;;;;;;8.05;1.30;;;;;;;;;;5115314;28;20016;-27
2023/12/30 07:29:58;;;;;;;13.45;2.45;;;;;;;;;;5114526;28;20026;-27
2023/12/30 07:32:23;;;;;;;6.78;1.40;;;;;;;;;;5115095;28;20084;-27
2023/12/30 07:34:48;;;;;;;9.73;1.40;;;;;;;;;;5096745;28;20517;-27
2023/12/30 07:37:14;;;;;;;11.07;1.42;;;;;;;;;;5114937;28;20257;-26
2023/12/30 07:39:39;;;;;;;14.48;2.30;;;;;;;;;;5114638;28;20015;-27
2023/12/30 07:42:04;;;;;;;10.95;2.25;;;;;;;;;;5114513;28;20023;-27
2023/12/30 07:44:30;;;;;;;11.95;1.98;;;;;;;;;;5114527;28;20062;-27
2023/12/30 07:46:55;;;;;;;13.65;1.70;;;;;;;;;;5114843;28;20421;-27
2023/12/30 07:49:20;;;;;;;9.55;1.70;;;;;;;;;;5114981;28;20011;-27
2023/12/30 07:51:45;;;;;;;4.80;1.57;;;;;;;;;;5114364;28;20408;-27
2023/12/30 07:54:12;;;;;;;9.68;1.70;;;;;;;;;;5114391;28;20376;-27
2023/12/30 07:56:37;;;;;;;9.95;1.73;;;;;;;;;;5114495;28;20024;-27
2023/12/30 07:59:03;;;;;;;11.00;1.70;;;;;;;;;;5114597;28;20028;-27
2023/12/30 08:01:28;;;;;;;12.00;2.00;;;;;;;;;;5114032;28;20286;-27
2023/12/30 08:03:53;;;;;;;10.30;1.83;;;;;;;;;;5114231;28;20254;-27
2023/12/30 08:06:18;;;;;;;10.60;1.83;;;;;;;;;;5114146;28;20303;-27
2023/12/30 08:08:44;;;;;;;17.60;1.80;;;;;;;;;;5095984;28;20261;-27
2023/12/30 08:11:09;;;;;;;10.70;1.70;;;;;;;;;;5095836;28;20725;-27
2023/12/30 08:13:34;;;;;;;10.67;1.80;;;;;;;;;;5114042;28;20481;-27
2023/12/30 08:15:59;;;;;;;7.23;1.90;;;;;;;;;;5114609;28;20383;-27
2023/12/30 08:18:24;;;;;;;11.13;1.83;;;;;;;;;;5113656;28;20265;-27
2023/12/30 08:20:51;;;;;;;9.63;2.07;;;;;;;;;;5114341;28;20281;-27
2023/12/30 08:23:16;;;;;;;9.43;1.63;;;;;;;;;;5114118;28;20280;-28
2023/12/30 08:25:41;;;;;;;10.07;1.75;;;;;;;;;;5113925;28;20404;-28
2023/12/30 08:28:06;;;;;;;8.85;1.77;;;;;;;;;;5114447;28;20034;-26
2023/12/30 08:30:32;;;;;;;11.45;1.65;;;;;;;;;;5114119;28;20012;-27
2023/12/30 08:33:03;;;;;;;16.10;2.13;;;;;;;;;;5113775;28;20023;-30
2023/12/30 08:35:28;;;;;;;11.70;1.60;;;;;;;;;;5113838;28;20249;-27
2023/12/30 08:37:53;;;;;;;12.43;2.07;;;;;;;;;;5114328;28;20023;-27
2023/12/30 08:40:18;;;;;;;15.73;2.00;;;;;;;;;;5113748;28;20332;-27
2023/12/30 08:42:44;;;;;;;10.77;1.97;;;;;;;;;;5116524;28;20276;-27
2023/12/30 08:45:17;;;;;;;14.00;2.55;;;;;;;;;;5118016;28;20260;-27
2023/12/30 08:47:44;;;;;;;;;;;;;;;;;;5118626;28;20431;-27
2023/12/30 08:50:10;;;;;;;16.23;2.42;;;;;;;;;;5117914;28;19911;-27
2023/12/30 08:52:35;;;;;;;9.48;1.65;;;;;;;;;;5118117;28;20032;-27
2023/12/30 08:55:00;;;;;;;14.40;3.03;;;;;;;;;;5118450;28;20055;-27
2023/12/30 08:57:25;;;;;;;14.40;4.47;;;;;;;;;;5118052;28;20261;-27
2023/12/30 08:59:50;;;;;;;9.93;1.93;;;;;;;;;;5117612;28;20278;-27
2023/12/30 09:02:16;;;;;;;10.17;2.07;;;;;;;;;;5118175;28;20341;-29
2023/12/30 09:04:41;;;;;;;11.77;1.90;;;;;;;;;;5117905;28;20332;-28
2023/12/30 09:07:06;;;;;;;8.73;2.15;;;;;;;;;;5117642;28;20016;-27
2023/12/30 09:09:32;;;;;;;16.52;3.15;;;;;;;;;;5117285;28;20023;-27
2023/12/30 09:11:57;;;;;;;17.50;3.50;;;;;;;;;;5116036;28;20023;-27
2023/12/30 09:14:24;;;;;;;16.97;3.20;;;;;;;;;;5116268;28;20470;-27
2023/12/30 09:16:49;;;;;;;9.10;2.38;;;;;;;;;;5098981;28;20747;-27
2023/12/30 09:19:14;;;;;;;8.98;1.88;;;;;;;;;;5116089;28;20019;-27
2023/12/30 09:21:39;;;;;;;14.13;2.70;;;;;;;;;;5117871;28;20020;-27
2023/12/30 09:24:05;;;;;;;13.15;2.05;;;;;;;;;;5116873;28;20286;-28
2023/12/30 09:26:30;;;;;;;15.30;2.72;;;;;;;;;;5115301;28;20023;-27
2023/12/30 09:28:55;;;;;;;13.27;2.60;;;;;;;;;;5114971;28;20374;-27
2023/12/30 09:31:20;;;;;;;9.23;2.58;;;;;;;;;;5114878;28;20279;-27
2023/12/30 09:33:47;;;;;;;14.43;2.97;;;;;;;;;;5115215;28;20065;-27
2023/12/30 09:36:12;;;;;;;15.15;1.88;;;;;;;;;;5114921;28;20045;-27
2023/12/30 09:38:37;;;;;;;11.52;3.80;;;;;;;;;;5114864;28;20027;-27
2023/12/30 09:41:02;;;;;;;16.83;3.57;;;;;;;;;;5116468;28;20501;-28
2023/12/30 09:43:28;;;;;;;15.50;2.88;;;;;;;;;;5117135;28;20277;-27
2023/12/30 09:45:54;;;;;;;9.57;2.28;;;;;;;;;;5098620;28;20068;-27
2023/12/30 09:48:20;;;;;;;15.65;3.97;;;;;;;;;;5116833;28;20355;-27
2023/12/30 09:50:46;;;;;;;11.10;2.05;;;;;;;;;;5116815;28;20486;-27
2023/12/30 09:53:11;;;;;;;10.57;2.60;;;;;;;;;;5116740;28;20067;-27
2023/12/30 09:55:37;;;;;;;13.80;2.50;;;;;;;;;;5117296;28;20064;-27
2023/12/30 09:58:03;;;;;;;15.43;3.53;;;;;;;;;;5116472;28;20268;-27
2023/12/30 10:00:31;;;;;;;13.98;2.40;;;;;;;;;;5116480;28;20281;-27
2023/12/30 10:02:56;;;;;;;18.48;2.80;;;;;;;;;;5116519;28;20081;-27
2023/12/30 10:05:21;;;;;;;15.48;3.13;;;;;;;;;;5116814;28;20019;-27
2023/12/30 10:07:47;;;;;;;18.03;2.60;;;;;;;;;;5116969;28;20099;-27
2023/12/30 10:10:12;;;;;;;9.95;2.08;;;;;;;;;;5116974;28;20261;-27
2023/12/30 10:12:37;;;;;;;11.60;1.97;;;;;;;;;;5116336;28;20447;-27
2023/12/30 10:15:03;;;;;;;14.50;2.00;;;;;;;;;;5116830;28;20261;-26
2023/12/30 10:17:29;;;;;;;14.02;2.22;;;;;;;;;;5116500;28;20309;-27
2023/12/30 10:19:54;;;;;;;16.33;2.75;;;;;;;;;;5116466;28;20015;-27
2023/12/30 10:22:20;;;;;;;18.10;4.23;;;;;;;;;;5116166;28;20363;-26
2023/12/30 10:24:46;;;;;;;20.58;4.88;;;;;;;;;;5116317;28;20272;-27
2023/12/30 10:27:11;;;;;;;17.25;2.53;;;;;;;;;;5097642;28;20015;-27
2023/12/30 10:29:36;;;;;;;12.73;3.92;;;;;;;;;;5116191;28;20019;-27
2023/12/30 10:32:03;;;;;;;11.45;3.33;;;;;;;;;;5115978;28;20012;-27
2023/12/30 10:34:29;;;;;;;14.48;2.22;;;;;;;;;;5116155;28;20028;-27
2023/12/30 10:36:55;;;;;;;14.52;2.38;;;;;;;;;;5115812;28;20450;-27
2023/12/30 10:39:21;;;;;;;18.75;2.30;;;;;;;;;;5116040;28;20030;-27
2023/12/30 10:41:46;;;;;;;10.85;1.83;;;;;;;;;;5115718;28;20047;-28
2023/12/30 10:44:12;;;;;;;14.70;2.07;;;;;;;;;;5116264;28;20047;-28
2023/12/30 10:46:38;;;;;;;16.37;2.67;;;;;;;;;;5115650;28;20724;-27
2023/12/30 10:49:03;;;;;;;20.80;2.88;;;;;;;;;;5115769;28;20257;-27
2023/12/30 10:51:29;;;;;;;20.95;2.70;;;;;;;;;;5115385;28;20012;-27
2023/12/30 10:54:03;;;;;;;14.82;2.55;;;;;;;;;;5115211;28;20462;-27
2023/12/30 10:56:29;;;;;;;12.60;2.35;;;;;;;;;;5115367;28;20027;-27
2023/12/30 10:58:58;;;;;;;13.48;2.20;;;;;;;;;;5115278;28;20099;-27
2023/12/30 11:01:24;;;;;;;11.93;2.20;;;;;;;;;;5115342;28;20071;-27
2023/12/30 11:03:49;;;;;;;16.42;2.50;;;;;;;;;;5114881;28;20106;-27
2023/12/30 11:06:23;;;;;;;16.10;2.33;;;;;;;;;;5115255;28;20051;-27
2023/12/30 11:08:51;;;;;;;19.85;2.42;;;;;;;;;;5115155;28;20366;-27
2023/12/30 11:11:19;;;;;;;11.35;2.22;;;;;;;;;;5115262;28;20020;-27
2023/12/30 11:13:45;;;;;;;23.42;3.72;;;;;;;;;;5115076;28;20527;-27
2023/12/30 11:16:14;;;;;;;15.13;2.42;;;;;;;;;;5114784;28;20019;-27
2023/12/30 11:18:46;;;;;;;14.52;2.25;;;;;;;;;;5115213;28;20142;-27
2023/12/30 11:21:11;;;;;;;15.68;2.60;;;;;;;;;;5115198;28;20015;-27
2023/12/30 11:23:36;;;;;;;17.97;2.50;;;;;;;;;;5114039;28;20493;-27
2023/12/30 11:26:04;;;;;;;15.90;2.22;;;;;;;;;;5113863;28;20258;-26
2023/12/30 11:28:31;;;;;;;15.82;2.60;;;;;;;;;;5113723;28;20012;-26
2023/12/30 11:30:58;;;;;;;17.45;2.67;;;;;;;;;;5114825;28;20030;-27
2023/12/30 11:33:23;;;;;;;15.00;2.95;;;;;;;;;;5113390;28;20026;-28
2023/12/30 11:35:53;;;;;;;14.43;2.47;;;;;;;;;;5096394;28;20015;-28
2023/12/30 11:38:19;;;;;;;18.48;2.80;;;;;;;;;;5114834;28;20485;-28
2023/12/30 11:40:49;;;;;;;15.43;2.75;;;;;;;;;;5115106;28;20024;-27
2023/12/30 11:43:14;;;;;;;18.77;3.67;;;;;;;;;;5114466;28;20019;-28
2023/12/30 11:45:39;;;;;;;21.95;3.05;;;;;;;;;;5114618;28;20015;-27
2023/12/30 11:48:05;;;;;;;15.53;3.00;;;;;;;;;;5114475;28;20462;-28
2023/12/30 11:50:30;;;;;;;14.63;2.80;;;;;;;;;;5113683;28;20336;-27
2023/12/30 11:52:56;;;;;;;14.07;3.28;;;;;;;;;;5114250;28;20035;-28
2023/12/30 11:55:22;;;;;;;12.77;2.92;;;;;;;;;;5114664;28;20024;-28
2023/12/30 11:57:47;;;;;;;18.02;3.97;;;;;;;;;;5114244;28;20476;-28
2023/12/30 12:00:13;;;;;;;19.25;3.50;;;;;;;;;;5095803;28;20071;-28
2023/12/30 12:02:38;;;;;;;16.05;3.78;;;;;;;;;;5114411;28;20028;-28
2023/12/30 12:05:04;;;;;;;21.00;4.18;;;;;;;;;;5114161;28;20030;-28
2023/12/30 12:07:30;;;;;;;19.08;4.47;;;;;;;;;;5114112;28;20027;-28
2023/12/30 12:09:56;;;;;;;17.03;4.93;;;;;;;;;;5114042;28;20012;-28
2023/12/30 12:12:22;;;;;;;21.13;5.30;;;;;;;;;;5114239;28;20249;-28
2023/12/30 12:14:48;;;;;;;25.67;5.15;;;;;;;;;;5114067;28;20140;-28
2023/12/30 12:17:13;;;;;;;26.98;5.63;;;;;;;;;;5113118;28;20073;-27
2023/12/30 12:19:39;;;;;;;33.88;7.32;;;;;;;;;;5114294;28;20421;-28
2023/12/30 12:22:04;;;;;;;16.25;5.65;;;;;;;;;;5114329;28;20098;-30
2023/12/30 12:24:30;;;;;;;24.02;5.50;;;;;;;;;;5095715;28;20485;-27
2023/12/30 12:26:55;;;;;;;31.70;6.55;;;;;;;;;;5114594;28;20016;-28
2023/12/30 12:29:21;;;;;;;18.60;5.20;;;;;;;;;;5113734;28;20016;-27
2023/12/30 12:31:46;;;;;;;26.60;5.63;;;;;;;;;;5114310;28;20285;-28
2023/12/30 12:34:24;;;;;;;25.20;6.03;;;;;;;;;;5113829;28;20027;-28
2023/12/30 12:36:49;;;;;;;22.38;6.45;;;;;;;;;;5113953;28;20099;-28
2023/12/30 12:39:16;;;;;;;20.52;6.22;;;;;;;;;;5113629;28;20043;-28
2023/12/30 12:41:41;;;;;;;20.52;6.10;;;;;;;;;;5095299;28;20024;-28
2023/12/30 12:44:06;;;;;;;27.15;6.97;;;;;;;;;;5114125;28;20022;-27
2023/12/30 12:46:32;;;;;;;20.47;6.23;;;;;;;;;;5114166;28;20062;-28
2023/12/30 12:48:59;;;;;;;24.90;7.40;;;;;;;;;;5113443;28;20249;-28
2023/12/30 12:51:24;;;;;;;21.73;7.05;;;;;;;;;;5113805;28;20016;-28
2023/12/30 12:53:50;;;;;;;22.77;6.88;;;;;;;;;;5113568;28;20106;-27
2023/12/30 12:56:15;;;;;;;27.53;7.47;;;;;;;;;;5113774;28;20026;-27
2023/12/30 12:58:40;;;;;;;23.90;7.80;;;;;;;;;;5113528;28;20265;-28
2023/12/30 13:01:07;;;;;;;31.95;8.63;;;;;;;;;;5113464;28;20040;-28
2023/12/30 13:03:32;;;;;;;21.13;8.32;;;;;;;;;;5113440;28;20486;-28
2023/12/30 13:05:59;;;;;;;25.33;8.70;;;;;;;;;;5113443;28;20016;-27
2023/12/30 13:08:24;;;;;;;34.85;8.98;;;;;;;;;;5113676;28;20378;-28
2023/12/30 13:10:51;;;;;;;31.27;9.60;;;;;;;;;;5113523;28;20020;-28
2023/12/30 13:13:16;;;;;;;23.42;8.85;;;;;;;;;;5113900;28;20292;-28
2023/12/30 13:15:41;;;;;;;22.20;8.85;;;;;;;;;;5113446;28;20019;-27
2023/12/30 13:18:12;;;;;;;32.60;8.70;;;;;;;;;;5113756;28;20031;-28
2023/12/30 13:20:38;;;;;;;21.58;8.93;;;;;;;;;;5113628;28;20099;-28
2023/12/30 13:23:05;;;;;;;28.33;9.07;;;;;;;;;;5113080;28;20377;-28
2023/12/30 13:25:30;;;;;;;29.45;9.13;;;;;;;;;;5113318;28;20026;-28
2023/12/30 13:27:56;;;;;;;19.98;8.75;;;;;;;;;;5114954;28;20322;-28
2023/12/30 13:30:24;;;;;;;23.48;8.27;;;;;;;;;;5117115;28;20386;-28
2023/12/30 13:32:55;;;;;;;22.17;7.70;;;;;;;;;;5117158;28;20031;-28
2023/12/30 13:35:21;;;;;;;24.95;8.63;;;;;;;;;;5117390;28;20370;-28
2023/12/30 13:37:46;;;;;;;25.00;7.15;;;;;;;;;;5117009;28;20031;-28
2023/12/30 13:40:13;;;;;;;22.38;7.28;;;;;;;;;;5116893;28;20098;-28
2023/12/30 13:42:38;;;;;;;24.85;7.07;;;;;;;;;;5117177;28;20369;-27
2023/12/30 13:45:06;;;;;;;21.60;7.13;;;;;;;;;;5098653;28;20022;-28
2023/12/30 13:47:51;;;;;;;16.98;7.05;;;;;;;;;;5117342;28;20098;-28
2023/12/30 13:50:26;;;;;;;18.58;7.18;;;;;;;;;;5117286;28;20048;-28
2023/12/30 13:52:53;;;;;;;20.70;6.95;;;;;;;;;;5116774;28;20386;-27
2023/12/30 13:55:19;;;;;;;18.70;6.75;;;;;;;;;;5116761;28;20027;-28
2023/12/30 13:57:45;;;;;;;30.83;7.85;;;;;;;;;;5116616;28;20408;-28
2023/12/30 14:00:13;;;;;;;24.10;6.95;;;;;;;;;;5116666;28;20063;-28
2023/12/30 14:02:39;;;;;;;23.65;7.45;;;;;;;;;;5116440;28;20024;-28
2023/12/30 14:05:07;;;;;;;23.67;7.05;;;;;;;;;;5117033;28;20091;-28
2023/12/30 14:07:32;;;;;;;21.23;7.43;;;;;;;;;;5116432;28;20019;-28
2023/12/30 14:10:06;;;;;;;22.17;6.70;;;;;;;;;;5116679;28;20339;-28
2023/12/30 14:12:31;;;;;;;25.95;6.93;;;;;;;;;;5116435;28;20110;-28
2023/12/30 14:15:05;;;;;;;19.45;6.63;;;;;;;;;;5098290;28;20054;-27
2023/12/30 14:17:33;;;;;;;27.17;7.45;;;;;;;;;;5116192;28;20020;-28
2023/12/30 14:20:01;;;;;;;23.25;6.30;;;;;;;;;;5116478;28;20498;-27
2023/12/30 14:22:27;;;;;;;19.50;5.50;;;;;;;;;;5116047;28;20028;-28
2023/12/30 14:24:52;;;;;;;19.60;5.95;;;;;;;;;;5115658;28;20131;-27